Villa Nitza, Puerto Rico
Current Conditions -  °F | °C
As of 12:56 AM on Thursday 23 Oct 2014 (Local Time) from TJSJ Reporting Station
Few Clouds Few Clouds  
Wind Chill: 81°   Ceiling: Unl
Heat Index: 86°   Visibility: 10mi
Dew Point: 74°   Wind: 0mph
Humidity: 79%   Direction: NA
Pressure: 29.95"   Gusts: NA
Location:  18.4259°N, 66.4717°W
Report Text: TJSJ 230456Z 00000KT 10SM FEW055 27/23 A2995 RMK AO2 SLP141 T02720233
Loading
Personal Weather Stations






























Interactive Weather Map New forecast layout! Learn more

10-Day Weather Forecast

Advertisements
Track Severe Weather on mobile